sensor_id;sensor_type;location;lat;lon;timestamp;P1;durP1;ratioP1;P2;durP2;ratioP2
64688;SDS011;51114;46.070;14.492;2022-07-23T00:02:21;56.20;;;42.13;;
64688;SDS011;51114;46.070;14.492;2022-07-23T00:04:46;57.10;;;41.33;;
64688;SDS011;51114;46.070;14.492;2022-07-23T00:07:12;53.42;;;41.45;;
64688;SDS011;51114;46.070;14.492;2022-07-23T00:09:37;55.80;;;42.05;;
64688;SDS011;51114;46.070;14.492;2022-07-23T00:12:03;50.63;;;40.38;;
64688;SDS011;51114;46.070;14.492;2022-07-23T00:14:29;59.03;;;40.42;;
64688;SDS011;51114;46.070;14.492;2022-07-23T00:16:55;49.00;;;39.08;;
64688;SDS011;51114;46.070;14.492;2022-07-23T00:19:20;53.63;;;38.92;;
64688;SDS011;51114;46.070;14.492;2022-07-23T00:21:46;52.33;;;40.47;;
64688;SDS011;51114;46.070;14.492;2022-07-23T00:24:12;56.72;;;41.35;;
64688;SDS011;51114;46.070;14.492;2022-07-23T00:26:37;55.33;;;39.75;;
64688;SDS011;51114;46.070;14.492;2022-07-23T00:29:03;54.00;;;40.72;;
64688;SDS011;51114;46.070;14.492;2022-07-23T00:31:29;52.05;;;39.80;;
64688;SDS011;51114;46.070;14.492;2022-07-23T00:33:54;50.92;;;40.20;;
64688;SDS011;51114;46.070;14.492;2022-07-23T00:36:25;56.20;;;40.97;;
64688;SDS011;51114;46.070;14.492;2022-07-23T00:38:52;51.83;;;39.70;;
64688;SDS011;51114;46.070;14.492;2022-07-23T00:41:17;49.35;;;39.13;;
64688;SDS011;51114;46.070;14.492;2022-07-23T00:43:43;52.55;;;39.92;;
64688;SDS011;51114;46.070;14.492;2022-07-23T00:46:08;53.95;;;40.95;;
64688;SDS011;51114;46.070;14.492;2022-07-23T00:48:34;51.13;;;40.45;;
64688;SDS011;51114;46.070;14.492;2022-07-23T00:51:00;56.35;;;40.30;;
64688;SDS011;51114;46.070;14.492;2022-07-23T00:53:25;52.65;;;40.83;;
64688;SDS011;51114;46.070;14.492;2022-07-23T00:55:51;53.42;;;40.88;;
64688;SDS011;51114;46.070;14.492;2022-07-23T00:58:17;53.85;;;40.47;;
64688;SDS011;51114;46.070;14.492;2022-07-23T01:00:44;54.42;;;40.45;;
64688;SDS011;51114;46.070;14.492;2022-07-23T01:03:10;53.90;;;39.55;;
64688;SDS011;51114;46.070;14.492;2022-07-23T01:05:36;53.47;;;40.28;;
64688;SDS011;51114;46.070;14.492;2022-07-23T01:08:01;51.28;;;38.88;;
64688;SDS011;51114;46.070;14.492;2022-07-23T01:10:27;51.10;;;38.17;;
64688;SDS011;51114;46.070;14.492;2022-07-23T01:12:56;51.65;;;40.08;;
64688;SDS011;51114;46.070;14.492;2022-07-23T01:15:22;51.58;;;38.80;;
64688;SDS011;51114;46.070;14.492;2022-07-23T01:17:48;50.10;;;39.05;;
64688;SDS011;51114;46.070;14.492;2022-07-23T01:20:14;49.33;;;38.53;;
64688;SDS011;51114;46.070;14.492;2022-07-23T01:22:40;48.78;;;38.58;;
64688;SDS011;51114;46.070;14.492;2022-07-23T01:25:06;47.55;;;37.30;;
64688;SDS011;51114;46.070;14.492;2022-07-23T01:27:32;47.72;;;37.08;;
64688;SDS011;51114;46.070;14.492;2022-07-23T01:29:59;50.17;;;37.08;;
64688;SDS011;51114;46.070;14.492;2022-07-23T01:32:25;48.38;;;37.45;;
64688;SDS011;51114;46.070;14.492;2022-07-23T01:34:51;50.42;;;38.40;;
64688;SDS011;51114;46.070;14.492;2022-07-23T01:37:16;49.42;;;36.50;;
64688;SDS011;51114;46.070;14.492;2022-07-23T01:39:42;46.63;;;36.25;;
64688;SDS011;51114;46.070;14.492;2022-07-23T01:42:07;49.42;;;36.63;;
64688;SDS011;51114;46.070;14.492;2022-07-23T01:44:33;48.10;;;36.05;;
64688;SDS011;51114;46.070;14.492;2022-07-23T01:46:59;53.22;;;36.92;;
64688;SDS011;51114;46.070;14.492;2022-07-23T01:49:24;46.00;;;35.08;;
64688;SDS011;51114;46.070;14.492;2022-07-23T01:51:50;45.45;;;35.80;;
64688;SDS011;51114;46.070;14.492;2022-07-23T01:54:27;46.20;;;35.20;;
64688;SDS011;51114;46.070;14.492;2022-07-23T01:56:57;44.60;;;35.85;;
64688;SDS011;51114;46.070;14.492;2022-07-23T01:59:23;47.63;;;36.33;;
64688;SDS011;51114;46.070;14.492;2022-07-23T02:01:49;50.53;;;36.10;;
64688;SDS011;51114;46.070;14.492;2022-07-23T02:04:18;46.75;;;35.38;;
64688;SDS011;51114;46.070;14.492;2022-07-23T02:06:45;43.85;;;34.67;;
64688;SDS011;51114;46.070;14.492;2022-07-23T02:09:10;46.95;;;35.65;;
64688;SDS011;51114;46.070;14.492;2022-07-23T02:11:36;45.40;;;35.25;;
64688;SDS011;51114;46.070;14.492;2022-07-23T02:14:02;41.47;;;34.08;;
64688;SDS011;51114;46.070;14.492;2022-07-23T02:16:28;43.20;;;33.72;;
64688;SDS011;51114;46.070;14.492;2022-07-23T02:18:54;40.97;;;31.83;;
64688;SDS011;51114;46.070;14.492;2022-07-23T02:21:19;43.70;;;31.80;;
64688;SDS011;51114;46.070;14.492;2022-07-23T02:23:45;41.70;;;32.00;;
64688;SDS011;51114;46.070;14.492;2022-07-23T02:26:11;42.97;;;33.17;;
64688;SDS011;51114;46.070;14.492;2022-07-23T02:28:36;42.30;;;32.80;;
64688;SDS011;51114;46.070;14.492;2022-07-23T02:31:02;44.58;;;33.85;;
64688;SDS011;51114;46.070;14.492;2022-07-23T02:33:28;43.25;;;32.90;;
64688;SDS011;51114;46.070;14.492;2022-07-23T02:35:54;41.78;;;32.92;;
64688;SDS011;51114;46.070;14.492;2022-07-23T02:38:19;44.42;;;32.70;;
64688;SDS011;51114;46.070;14.492;2022-07-23T02:40:45;42.85;;;32.15;;
64688;SDS011;51114;46.070;14.492;2022-07-23T02:43:11;42.92;;;32.58;;
64688;SDS011;51114;46.070;14.492;2022-07-23T02:45:36;44.50;;;32.47;;
64688;SDS011;51114;46.070;14.492;2022-07-23T02:48:02;46.65;;;33.55;;
64688;SDS011;51114;46.070;14.492;2022-07-23T02:50:28;42.88;;;32.92;;
64688;SDS011;51114;46.070;14.492;2022-07-23T02:52:53;43.63;;;35.03;;
64688;SDS011;51114;46.070;14.492;2022-07-23T02:55:19;46.50;;;34.38;;
64688;SDS011;51114;46.070;14.492;2022-07-23T02:57:44;45.40;;;34.08;;
64688;SDS011;51114;46.070;14.492;2022-07-23T03:00:10;43.90;;;33.35;;
64688;SDS011;51114;46.070;14.492;2022-07-23T03:02:36;44.70;;;34.28;;
64688;SDS011;51114;46.070;14.492;2022-07-23T03:05:02;45.55;;;33.85;;
64688;SDS011;51114;46.070;14.492;2022-07-23T03:07:28;43.97;;;33.53;;
64688;SDS011;51114;46.070;14.492;2022-07-23T03:09:53;42.10;;;34.03;;
64688;SDS011;51114;46.070;14.492;2022-07-23T03:12:19;43.08;;;34.00;;
64688;SDS011;51114;46.070;14.492;2022-07-23T03:14:44;43.40;;;33.30;;
64688;SDS011;51114;46.070;14.492;2022-07-23T03:17:10;40.65;;;31.40;;
64688;SDS011;51114;46.070;14.492;2022-07-23T03:19:35;38.53;;;30.65;;
64688;SDS011;51114;46.070;14.492;2022-07-23T03:22:02;41.00;;;30.77;;
64688;SDS011;51114;46.070;14.492;2022-07-23T03:24:28;38.78;;;31.00;;
64688;SDS011;51114;46.070;14.492;2022-07-23T03:27:13;45.60;;;30.67;;
64688;SDS011;51114;46.070;14.492;2022-07-23T03:29:39;43.55;;;32.10;;
64688;SDS011;51114;46.070;14.492;2022-07-23T03:32:04;42.78;;;32.28;;
64688;SDS011;51114;46.070;14.492;2022-07-23T03:34:30;42.80;;;32.17;;
64688;SDS011;51114;46.070;14.492;2022-07-23T03:36:56;42.72;;;32.75;;
64688;SDS011;51114;46.070;14.492;2022-07-23T03:39:21;47.85;;;33.15;;
64688;SDS011;51114;46.070;14.492;2022-07-23T03:41:47;42.60;;;32.75;;
64688;SDS011;51114;46.070;14.492;2022-07-23T03:44:13;48.20;;;34.35;;
64688;SDS011;51114;46.070;14.492;2022-07-23T03:46:38;41.20;;;32.85;;
64688;SDS011;51114;46.070;14.492;2022-07-23T03:49:04;44.35;;;33.55;;
64688;SDS011;51114;46.070;14.492;2022-07-23T03:51:29;45.88;;;33.85;;
64688;SDS011;51114;46.070;14.492;2022-07-23T03:53:55;46.35;;;34.08;;
64688;SDS011;51114;46.070;14.492;2022-07-23T03:56:21;42.00;;;32.50;;
64688;SDS011;51114;46.070;14.492;2022-07-23T03:58:47;43.22;;;32.35;;
64688;SDS011;51114;46.070;14.492;2022-07-23T04:01:12;44.28;;;32.90;;
64688;SDS011;51114;46.070;14.492;2022-07-23T04:03:38;39.83;;;32.05;;
64688;SDS011;51114;46.070;14.492;2022-07-23T04:06:04;50.20;;;32.67;;
64688;SDS011;51114;46.070;14.492;2022-07-23T04:08:30;42.20;;;32.60;;
64688;SDS011;51114;46.070;14.492;2022-07-23T04:10:56;42.25;;;32.17;;
64688;SDS011;51114;46.070;14.492;2022-07-23T04:13:21;41.28;;;31.35;;
64688;SDS011;51114;46.070;14.492;2022-07-23T04:15:47;44.67;;;32.25;;
64688;SDS011;51114;46.070;14.492;2022-07-23T04:18:13;43.35;;;31.27;;
64688;SDS011;51114;46.070;14.492;2022-07-23T04:20:38;40.63;;;30.43;;
64688;SDS011;51114;46.070;14.492;2022-07-23T04:23:04;43.58;;;31.73;;
64688;SDS011;51114;46.070;14.492;2022-07-23T04:25:30;43.13;;;32.08;;
64688;SDS011;51114;46.070;14.492;2022-07-23T04:27:55;38.58;;;31.63;;
64688;SDS011;51114;46.070;14.492;2022-07-23T04:30:21;40.85;;;31.20;;
64688;SDS011;51114;46.070;14.492;2022-07-23T04:32:46;38.95;;;30.33;;
64688;SDS011;51114;46.070;14.492;2022-07-23T04:35:12;42.05;;;29.30;;
64688;SDS011;51114;46.070;14.492;2022-07-23T04:37:38;35.80;;;27.83;;
64688;SDS011;51114;46.070;14.492;2022-07-23T04:40:03;36.53;;;27.50;;
64688;SDS011;51114;46.070;14.492;2022-07-23T04:42:30;36.45;;;27.88;;
64688;SDS011;51114;46.070;14.492;2022-07-23T04:44:55;36.65;;;29.05;;
64688;SDS011;51114;46.070;14.492;2022-07-23T04:47:21;37.58;;;29.75;;
64688;SDS011;51114;46.070;14.492;2022-07-23T04:49:46;40.03;;;29.38;;
64688;SDS011;51114;46.070;14.492;2022-07-23T04:52:12;38.53;;;28.90;;
64688;SDS011;51114;46.070;14.492;2022-07-23T04:54:38;38.90;;;29.50;;
64688;SDS011;51114;46.070;14.492;2022-07-23T04:57:03;39.45;;;28.27;;
64688;SDS011;51114;46.070;14.492;2022-07-23T04:59:29;35.67;;;27.23;;
64688;SDS011;51114;46.070;14.492;2022-07-23T05:01:54;37.78;;;27.27;;
64688;SDS011;51114;46.070;14.492;2022-07-23T05:04:20;35.83;;;28.10;;
64688;SDS011;51114;46.070;14.492;2022-07-23T05:06:46;37.50;;;28.20;;
64688;SDS011;51114;46.070;14.492;2022-07-23T05:09:11;37.35;;;28.67;;
64688;SDS011;51114;46.070;14.492;2022-07-23T05:11:37;39.53;;;28.73;;
64688;SDS011;51114;46.070;14.492;2022-07-23T05:14:03;40.70;;;29.55;;
64688;SDS011;51114;46.070;14.492;2022-07-23T05:16:28;41.63;;;29.63;;
64688;SDS011;51114;46.070;14.492;2022-07-23T05:18:54;40.63;;;30.48;;
64688;SDS011;51114;46.070;14.492;2022-07-23T05:21:19;39.83;;;30.65;;
64688;SDS011;51114;46.070;14.492;2022-07-23T05:23:45;41.10;;;29.98;;
64688;SDS011;51114;46.070;14.492;2022-07-23T05:26:11;43.30;;;30.75;;
64688;SDS011;51114;46.070;14.492;2022-07-23T05:28:36;42.28;;;29.58;;
64688;SDS011;51114;46.070;14.492;2022-07-23T05:31:02;42.30;;;29.70;;
64688;SDS011;51114;46.070;14.492;2022-07-23T05:33:28;39.17;;;29.58;;
64688;SDS011;51114;46.070;14.492;2022-07-23T05:35:59;35.30;;;27.63;;
64688;SDS011;51114;46.070;14.492;2022-07-23T05:38:28;39.92;;;30.13;;
64688;SDS011;51114;46.070;14.492;2022-07-23T05:40:54;41.92;;;30.63;;
64688;SDS011;51114;46.070;14.492;2022-07-23T05:43:20;44.28;;;31.23;;
64688;SDS011;51114;46.070;14.492;2022-07-23T05:45:45;46.10;;;34.95;;
64688;SDS011;51114;46.070;14.492;2022-07-23T05:48:11;43.58;;;33.08;;
64688;SDS011;51114;46.070;14.492;2022-07-23T05:50:37;46.47;;;32.90;;
64688;SDS011;51114;46.070;14.492;2022-07-23T05:53:03;42.35;;;32.05;;
64688;SDS011;51114;46.070;14.492;2022-07-23T05:55:29;50.92;;;38.58;;
64688;SDS011;51114;46.070;14.492;2022-07-23T05:57:56;44.33;;;33.42;;
64688;SDS011;51114;46.070;14.492;2022-07-23T06:00:23;46.67;;;34.75;;
64688;SDS011;51114;46.070;14.492;2022-07-23T06:02:49;43.30;;;33.58;;
64688;SDS011;51114;46.070;14.492;2022-07-23T06:05:15;43.22;;;32.33;;
64688;SDS011;51114;46.070;14.492;2022-07-23T06:07:41;42.75;;;31.50;;
64688;SDS011;51114;46.070;14.492;2022-07-23T06:10:07;42.63;;;33.42;;
64688;SDS011;51114;46.070;14.492;2022-07-23T06:12:33;49.38;;;34.10;;
64688;SDS011;51114;46.070;14.492;2022-07-23T06:14:58;41.13;;;33.20;;
64688;SDS011;51114;46.070;14.492;2022-07-23T06:17:24;41.13;;;31.50;;
64688;SDS011;51114;46.070;14.492;2022-07-23T06:19:50;43.35;;;33.03;;
64688;SDS011;51114;46.070;14.492;2022-07-23T06:22:15;40.28;;;30.35;;
64688;SDS011;51114;46.070;14.492;2022-07-23T06:24:41;44.15;;;31.20;;
64688;SDS011;51114;46.070;14.492;2022-07-23T06:27:06;44.42;;;30.70;;
64688;SDS011;51114;46.070;14.492;2022-07-23T06:29:32;45.00;;;30.10;;
64688;SDS011;51114;46.070;14.492;2022-07-23T06:31:58;42.55;;;30.58;;
64688;SDS011;51114;46.070;14.492;2022-07-23T06:34:24;42.60;;;29.73;;
64688;SDS011;51114;46.070;14.492;2022-07-23T06:36:49;38.17;;;28.73;;
64688;SDS011;51114;46.070;14.492;2022-07-23T06:39:15;40.92;;;30.27;;
64688;SDS011;51114;46.070;14.492;2022-07-23T06:41:41;40.78;;;30.85;;
64688;SDS011;51114;46.070;14.492;2022-07-23T06:44:06;39.75;;;30.38;;
64688;SDS011;51114;46.070;14.492;2022-07-23T06:46:32;45.03;;;30.35;;
64688;SDS011;51114;46.070;14.492;2022-07-23T06:48:58;37.25;;;30.33;;
64688;SDS011;51114;46.070;14.492;2022-07-23T06:51:24;38.60;;;30.33;;
64688;SDS011;51114;46.070;14.492;2022-07-23T06:53:50;44.50;;;34.83;;
64688;SDS011;51114;46.070;14.492;2022-07-23T06:56:15;40.72;;;30.65;;
64688;SDS011;51114;46.070;14.492;2022-07-23T06:58:41;44.40;;;33.70;;
64688;SDS011;51114;46.070;14.492;2022-07-23T07:01:07;47.10;;;32.30;;
64688;SDS011;51114;46.070;14.492;2022-07-23T07:03:32;38.35;;;30.10;;
64688;SDS011;51114;46.070;14.492;2022-07-23T07:05:58;36.90;;;29.90;;
64688;SDS011;51114;46.070;14.492;2022-07-23T07:08:24;38.17;;;28.75;;
64688;SDS011;51114;46.070;14.492;2022-07-23T07:10:49;39.05;;;29.45;;
64688;SDS011;51114;46.070;14.492;2022-07-23T07:13:15;38.30;;;29.73;;
64688;SDS011;51114;46.070;14.492;2022-07-23T07:15:41;39.85;;;30.52;;
64688;SDS011;51114;46.070;14.492;2022-07-23T07:18:07;98.53;;;66.90;;
64688;SDS011;51114;46.070;14.492;2022-07-23T07:20:32;202.10;;;123.65;;
64688;SDS011;51114;46.070;14.492;2022-07-23T07:22:58;47.33;;;34.92;;
64688;SDS011;51114;46.070;14.492;2022-07-23T07:25:24;57.38;;;39.78;;
64688;SDS011;51114;46.070;14.492;2022-07-23T07:27:50;54.88;;;35.63;;
64688;SDS011;51114;46.070;14.492;2022-07-23T07:30:16;38.63;;;32.58;;
64688;SDS011;51114;46.070;14.492;2022-07-23T07:32:42;45.03;;;35.00;;
64688;SDS011;51114;46.070;14.492;2022-07-23T07:35:08;43.35;;;30.88;;
64688;SDS011;51114;46.070;14.492;2022-07-23T07:37:33;47.63;;;32.40;;
64688;SDS011;51114;46.070;14.492;2022-07-23T07:39:59;45.33;;;33.00;;
64688;SDS011;51114;46.070;14.492;2022-07-23T07:42:25;40.20;;;31.67;;
64688;SDS011;51114;46.070;14.492;2022-07-23T07:44:51;43.15;;;31.75;;
64688;SDS011;51114;46.070;14.492;2022-07-23T07:47:16;44.85;;;32.28;;
64688;SDS011;51114;46.070;14.492;2022-07-23T07:49:42;43.08;;;32.00;;
64688;SDS011;51114;46.070;14.492;2022-07-23T07:52:08;45.50;;;32.38;;
64688;SDS011;51114;46.070;14.492;2022-07-23T07:54:34;42.35;;;32.15;;
64688;SDS011;51114;46.070;14.492;2022-07-23T07:57:00;44.65;;;31.17;;
64688;SDS011;51114;46.070;14.492;2022-07-23T07:59:25;40.85;;;30.90;;
64688;SDS011;51114;46.070;14.492;2022-07-23T08:01:51;37.67;;;30.42;;
64688;SDS011;51114;46.070;14.492;2022-07-23T08:04:17;43.17;;;32.25;;
64688;SDS011;51114;46.070;14.492;2022-07-23T08:06:42;40.10;;;30.92;;
64688;SDS011;51114;46.070;14.492;2022-07-23T08:09:08;38.08;;;30.80;;
64688;SDS011;51114;46.070;14.492;2022-07-23T08:11:33;43.58;;;34.05;;
64688;SDS011;51114;46.070;14.492;2022-07-23T08:13:59;40.15;;;32.42;;
64688;SDS011;51114;46.070;14.492;2022-07-23T08:16:25;43.50;;;33.72;;
64688;SDS011;51114;46.070;14.492;2022-07-23T08:18:50;47.45;;;32.40;;
64688;SDS011;51114;46.070;14.492;2022-07-23T08:21:16;42.55;;;33.33;;
64688;SDS011;51114;46.070;14.492;2022-07-23T08:23:42;49.25;;;34.67;;
64688;SDS011;51114;46.070;14.492;2022-07-23T08:26:07;42.78;;;34.75;;
64688;SDS011;51114;46.070;14.492;2022-07-23T08:28:33;45.63;;;34.92;;
64688;SDS011;51114;46.070;14.492;2022-07-23T08:30:59;40.47;;;33.38;;
64688;SDS011;51114;46.070;14.492;2022-07-23T08:33:25;43.67;;;34.80;;
64688;SDS011;51114;46.070;14.492;2022-07-23T08:35:51;42.22;;;34.30;;
64688;SDS011;51114;46.070;14.492;2022-07-23T08:38:21;44.47;;;33.50;;
64688;SDS011;51114;46.070;14.492;2022-07-23T08:40:48;46.78;;;38.55;;
64688;SDS011;51114;46.070;14.492;2022-07-23T08:43:16;46.00;;;34.35;;
64688;SDS011;51114;46.070;14.492;2022-07-23T08:45:48;40.40;;;33.88;;
64688;SDS011;51114;46.070;14.492;2022-07-23T08:48:18;45.20;;;33.97;;
64688;SDS011;51114;46.070;14.492;2022-07-23T08:50:47;41.65;;;34.25;;
64688;SDS011;51114;46.070;14.492;2022-07-23T08:53:15;45.63;;;34.17;;
64688;SDS011;51114;46.070;14.492;2022-07-23T08:55:45;39.88;;;33.50;;
64688;SDS011;51114;46.070;14.492;2022-07-23T08:58:15;45.47;;;36.45;;
64688;SDS011;51114;46.070;14.492;2022-07-23T09:00:41;49.03;;;37.13;;
64688;SDS011;51114;46.070;14.492;2022-07-23T09:03:07;44.75;;;37.13;;
64688;SDS011;51114;46.070;14.492;2022-07-23T09:05:41;51.72;;;40.35;;
64688;SDS011;51114;46.070;14.492;2022-07-23T09:15:53;49.72;;;41.83;;
64688;SDS011;51114;46.070;14.492;2022-07-23T09:21:08;48.28;;;40.70;;
64688;SDS011;51114;46.070;14.492;2022-07-23T09:26:25;53.63;;;39.90;;
64688;SDS011;51114;46.070;14.492;2022-07-23T09:28:59;50.38;;;40.92;;
64688;SDS011;51114;46.070;14.492;2022-07-23T09:32:13;53.60;;;41.30;;
64688;SDS011;51114;46.070;14.492;2022-07-23T09:36:58;49.58;;;39.35;;
64688;SDS011;51114;46.070;14.492;2022-07-23T09:39:49;51.60;;;39.60;;
64688;SDS011;51114;46.070;14.492;2022-07-23T09:42:18;48.28;;;39.50;;
64688;SDS011;51114;46.070;14.492;2022-07-23T09:44:49;47.40;;;37.60;;
64688;SDS011;51114;46.070;14.492;2022-07-23T09:47:20;46.88;;;38.47;;
64688;SDS011;51114;46.070;14.492;2022-07-23T09:50:04;45.00;;;37.15;;
64688;SDS011;51114;46.070;14.492;2022-07-23T09:52:35;49.08;;;37.45;;
64688;SDS011;51114;46.070;14.492;2022-07-23T09:55:08;41.60;;;34.53;;
64688;SDS011;51114;46.070;14.492;2022-07-23T09:57:34;45.75;;;36.65;;
64688;SDS011;51114;46.070;14.492;2022-07-23T10:00:00;43.28;;;35.60;;
64688;SDS011;51114;46.070;14.492;2022-07-23T10:02:29;39.08;;;34.70;;
64688;SDS011;51114;46.070;14.492;2022-07-23T10:04:58;45.10;;;38.83;;
64688;SDS011;51114;46.070;14.492;2022-07-23T10:07:26;47.83;;;35.78;;
64688;SDS011;51114;46.070;14.492;2022-07-23T10:09:55;42.20;;;34.47;;
64688;SDS011;51114;46.070;14.492;2022-07-23T10:12:21;38.15;;;33.67;;
64688;SDS011;51114;46.070;14.492;2022-07-23T10:14:50;39.28;;;33.33;;
64688;SDS011;51114;46.070;14.492;2022-07-23T10:17:16;39.22;;;32.28;;
64688;SDS011;51114;46.070;14.492;2022-07-23T10:19:43;37.67;;;31.83;;
64688;SDS011;51114;46.070;14.492;2022-07-23T10:22:11;53.63;;;39.50;;
64688;SDS011;51114;46.070;14.492;2022-07-23T10:29:55;36.70;;;29.13;;
64688;SDS011;51114;46.070;14.492;2022-07-23T10:35:29;34.45;;;29.40;;
64688;SDS011;51114;46.070;14.492;2022-07-23T10:40:53;38.00;;;29.42;;
64688;SDS011;51114;46.070;14.492;2022-07-23T10:43:19;33.50;;;28.00;;
64688;SDS011;51114;46.070;14.492;2022-07-23T10:45:45;29.48;;;24.70;;
64688;SDS011;51114;46.070;14.492;2022-07-23T10:50:39;29.67;;;23.33;;
64688;SDS011;51114;46.070;14.492;2022-07-23T10:57:59;25.92;;;22.45;;
64688;SDS011;51114;46.070;14.492;2022-07-23T11:00:26;26.85;;;22.00;;
64688;SDS011;51114;46.070;14.492;2022-07-23T11:02:55;26.70;;;22.27;;
64688;SDS011;51114;46.070;14.492;2022-07-23T11:05:23;23.75;;;21.08;;
64688;SDS011;51114;46.070;14.492;2022-07-23T11:32:08;31.05;;;22.48;;
64688;SDS011;51114;46.070;14.492;2022-07-23T11:34:53;25.95;;;22.02;;
64688;SDS011;51114;46.070;14.492;2022-07-23T11:40:05;32.83;;;22.70;;
64688;SDS011;51114;46.070;14.492;2022-07-23T11:42:36;32.28;;;22.52;;
64688;SDS011;51114;46.070;14.492;2022-07-23T11:45:16;27.35;;;21.40;;
64688;SDS011;51114;46.070;14.492;2022-07-23T11:47:41;25.67;;;21.80;;
64688;SDS011;51114;46.070;14.492;2022-07-23T11:50:09;28.00;;;22.95;;
64688;SDS011;51114;46.070;14.492;2022-07-23T11:52:35;25.98;;;21.35;;
64688;SDS011;51114;46.070;14.492;2022-07-23T11:55:02;25.83;;;21.00;;
64688;SDS011;51114;46.070;14.492;2022-07-23T11:57:31;28.48;;;20.40;;
64688;SDS011;51114;46.070;14.492;2022-07-23T12:00:01;24.75;;;19.67;;
64688;SDS011;51114;46.070;14.492;2022-07-23T12:02:32;24.50;;;19.85;;
64688;SDS011;51114;46.070;14.492;2022-07-23T12:04:58;25.63;;;20.73;;
64688;SDS011;51114;46.070;14.492;2022-07-23T12:12:43;31.50;;;22.00;;
64688;SDS011;51114;46.070;14.492;2022-07-23T12:15:14;23.10;;;18.65;;
64688;SDS011;51114;46.070;14.492;2022-07-23T12:17:44;26.38;;;20.10;;
64688;SDS011;51114;46.070;14.492;2022-07-23T12:20:12;26.25;;;20.48;;
64688;SDS011;51114;46.070;14.492;2022-07-23T12:25:08;23.95;;;17.95;;
64688;SDS011;51114;46.070;14.492;2022-07-23T12:27:34;23.38;;;18.60;;
64688;SDS011;51114;46.070;14.492;2022-07-23T12:30:22;26.15;;;19.65;;
64688;SDS011;51114;46.070;14.492;2022-07-23T12:32:47;22.88;;;19.40;;
64688;SDS011;51114;46.070;14.492;2022-07-23T12:35:14;25.55;;;20.73;;
64688;SDS011;51114;46.070;14.492;2022-07-23T12:37:42;25.73;;;20.55;;
64688;SDS011;51114;46.070;14.492;2022-07-23T12:42:58;20.92;;;17.83;;
64688;SDS011;51114;46.070;14.492;2022-07-23T12:45:28;27.17;;;16.92;;
64688;SDS011;51114;46.070;14.492;2022-07-23T12:48:07;19.33;;;16.17;;
64688;SDS011;51114;46.070;14.492;2022-07-23T12:50:37;21.50;;;16.40;;
64688;SDS011;51114;46.070;14.492;2022-07-23T12:55:30;23.13;;;17.60;;
64688;SDS011;51114;46.070;14.492;2022-07-23T12:58:03;21.73;;;17.52;;
64688;SDS011;51114;46.070;14.492;2022-07-23T13:00:33;21.27;;;17.58;;
64688;SDS011;51114;46.070;14.492;2022-07-23T13:03:25;24.38;;;17.73;;
64688;SDS011;51114;46.070;14.492;2022-07-23T13:05:56;21.63;;;16.00;;
64688;SDS011;51114;46.070;14.492;2022-07-23T13:08:22;21.30;;;16.63;;
64688;SDS011;51114;46.070;14.492;2022-07-23T13:10:48;18.98;;;13.75;;
64688;SDS011;51114;46.070;14.492;2022-07-23T13:13:16;16.13;;;13.10;;
64688;SDS011;51114;46.070;14.492;2022-07-23T13:15:44;13.23;;;11.85;;
64688;SDS011;51114;46.070;14.492;2022-07-23T13:18:10;16.60;;;12.77;;
64688;SDS011;51114;46.070;14.492;2022-07-23T13:20:36;14.90;;;10.75;;
64688;SDS011;51114;46.070;14.492;2022-07-23T13:23:03;11.93;;;10.00;;
64688;SDS011;51114;46.070;14.492;2022-07-23T13:25:30;12.13;;;9.30;;
64688;SDS011;51114;46.070;14.492;2022-07-23T13:27:55;12.40;;;9.45;;
64688;SDS011;51114;46.070;14.492;2022-07-23T13:30:21;13.52;;;10.43;;
64688;SDS011;51114;46.070;14.492;2022-07-23T13:32:47;17.35;;;14.55;;
64688;SDS011;51114;46.070;14.492;2022-07-23T13:35:13;18.15;;;14.25;;
64688;SDS011;51114;46.070;14.492;2022-07-23T13:37:39;18.88;;;13.98;;
64688;SDS011;51114;46.070;14.492;2022-07-23T13:40:05;17.05;;;13.00;;
64688;SDS011;51114;46.070;14.492;2022-07-23T13:42:31;16.98;;;12.00;;
64688;SDS011;51114;46.070;14.492;2022-07-23T13:44:57;19.70;;;11.88;;
64688;SDS011;51114;46.070;14.492;2022-07-23T13:47:22;17.10;;;13.15;;
64688;SDS011;51114;46.070;14.492;2022-07-23T13:49:48;19.00;;;12.80;;
64688;SDS011;51114;46.070;14.492;2022-07-23T13:52:14;17.55;;;13.38;;
64688;SDS011;51114;46.070;14.492;2022-07-23T13:54:40;16.77;;;12.80;;
64688;SDS011;51114;46.070;14.492;2022-07-23T13:57:05;17.35;;;11.55;;
64688;SDS011;51114;46.070;14.492;2022-07-23T13:59:32;15.55;;;12.13;;
64688;SDS011;51114;46.070;14.492;2022-07-23T14:01:58;17.88;;;12.93;;
64688;SDS011;51114;46.070;14.492;2022-07-23T14:04:24;15.77;;;12.13;;
64688;SDS011;51114;46.070;14.492;2022-07-23T14:06:49;19.90;;;11.68;;
64688;SDS011;51114;46.070;14.492;2022-07-23T14:09:15;12.85;;;11.45;;
64688;SDS011;51114;46.070;14.492;2022-07-23T14:11:40;17.30;;;12.00;;
64688;SDS011;51114;46.070;14.492;2022-07-23T14:14:06;15.40;;;11.57;;
64688;SDS011;51114;46.070;14.492;2022-07-23T14:16:32;12.77;;;9.23;;
64688;SDS011;51114;46.070;14.492;2022-07-23T14:18:57;12.13;;;9.13;;
64688;SDS011;51114;46.070;14.492;2022-07-23T14:21:23;13.35;;;9.10;;
64688;SDS011;51114;46.070;14.492;2022-07-23T14:23:49;11.77;;;8.02;;
64688;SDS011;51114;46.070;14.492;2022-07-23T14:26:14;12.93;;;7.40;;
64688;SDS011;51114;46.070;14.492;2022-07-23T14:28:40;8.10;;;7.03;;
64688;SDS011;51114;46.070;14.492;2022-07-23T14:31:05;11.80;;;8.43;;
64688;SDS011;51114;46.070;14.492;2022-07-23T14:33:31;12.00;;;8.27;;
64688;SDS011;51114;46.070;14.492;2022-07-23T14:35:57;9.18;;;8.23;;
64688;SDS011;51114;46.070;14.492;2022-07-23T14:38:23;12.02;;;8.00;;
64688;SDS011;51114;46.070;14.492;2022-07-23T14:40:49;13.30;;;7.90;;
64688;SDS011;51114;46.070;14.492;2022-07-23T14:43:15;14.13;;;8.02;;
64688;SDS011;51114;46.070;14.492;2022-07-23T14:45:40;11.82;;;8.68;;
64688;SDS011;51114;46.070;14.492;2022-07-23T14:48:06;12.27;;;7.97;;
64688;SDS011;51114;46.070;14.492;2022-07-23T14:50:31;11.90;;;7.63;;
64688;SDS011;51114;46.070;14.492;2022-07-23T14:52:57;10.63;;;7.25;;
64688;SDS011;51114;46.070;14.492;2022-07-23T14:55:23;9.40;;;7.53;;
64688;SDS011;51114;46.070;14.492;2022-07-23T14:57:48;11.18;;;6.88;;
64688;SDS011;51114;46.070;14.492;2022-07-23T15:00:14;9.63;;;6.80;;
64688;SDS011;51114;46.070;14.492;2022-07-23T15:02:40;11.63;;;7.03;;
64688;SDS011;51114;46.070;14.492;2022-07-23T15:05:06;8.38;;;6.95;;
64688;SDS011;51114;46.070;14.492;2022-07-23T15:07:31;11.63;;;7.50;;
64688;SDS011;51114;46.070;14.492;2022-07-23T15:09:57;13.00;;;7.25;;
64688;SDS011;51114;46.070;14.492;2022-07-23T15:12:23;11.55;;;7.22;;
64688;SDS011;51114;46.070;14.492;2022-07-23T15:14:49;9.23;;;6.85;;
64688;SDS011;51114;46.070;14.492;2022-07-23T15:17:15;9.13;;;6.68;;
64688;SDS011;51114;46.070;14.492;2022-07-23T15:19:40;17.38;;;7.13;;
64688;SDS011;51114;46.070;14.492;2022-07-23T15:22:06;15.60;;;6.60;;
64688;SDS011;51114;46.070;14.492;2022-07-23T15:24:31;10.75;;;7.25;;